createdAt,value
2019-04-06T00:00:23.955Z,61.39
2019-04-06T00:01:24.198Z,76.05
2019-04-06T00:02:24.407Z,45.44
2019-04-06T00:03:24.610Z,40.12
2019-04-06T00:04:24.830Z,40.28
2019-04-06T00:05:24.992Z,42.86
2019-04-06T00:06:25.109Z,43.18
2019-04-06T00:07:25.340Z,43.51
2019-04-06T00:08:25.575Z,39.64
2019-04-06T00:09:25.819Z,42.38
2019-04-06T00:10:26.085Z,43.99
2019-04-06T00:11:26.188Z,40.93
2019-04-06T00:12:26.403Z,40.77
2019-04-06T00:13:26.609Z,41.73
2019-04-06T00:14:26.819Z,41.41
2019-04-06T00:15:27.074Z,43.02
2019-04-06T00:16:27.189Z,40.61
2019-04-06T00:17:27.342Z,50.11
2019-04-06T00:18:27.576Z,40.28
2019-04-06T00:19:27.709Z,43.34
2019-04-06T00:20:27.980Z,40.77
2019-04-06T00:21:28.110Z,50.43
2019-04-06T00:22:28.216Z,42.38
2019-04-06T00:23:28.431Z,43.99
2019-04-06T00:24:28.676Z,45.44
2019-04-06T00:25:28.890Z,41.89
2019-04-06T00:26:29.111Z,50.11
2019-04-06T00:27:29.332Z,45.92
2019-04-06T00:28:29.561Z,58.65
2019-04-06T00:29:29.760Z,69.93
2019-04-06T00:30:29.974Z,44.63
2019-04-06T00:31:30.175Z,42.22
2019-04-06T00:32:30.410Z,42.06
2019-04-06T00:33:30.647Z,41.89
2019-04-06T00:34:30.743Z,45.28
2019-04-06T00:35:30.969Z,45.92
2019-04-06T00:36:31.155Z,39.80
2019-04-06T00:37:31.352Z,44.47
2019-04-06T00:38:33.795Z,59.62
2019-04-06T00:39:32.776Z,39.16
2019-04-06T00:40:31.959Z,41.25
2019-04-06T00:41:32.172Z,39.48
2019-04-06T00:42:32.371Z,40.28
2019-04-06T00:43:32.603Z,40.12
2019-04-06T00:44:32.807Z,43.34
2019-04-06T00:45:34.012Z,43.99
2019-04-06T00:46:33.180Z,40.44
2019-04-06T00:47:33.368Z,39.80
2019-04-06T00:48:33.637Z,40.12
2019-04-06T00:49:33.713Z,40.12
2019-04-06T00:50:34.010Z,44.63
2019-04-06T00:51:34.085Z,39.80
2019-04-06T00:52:34.329Z,44.47
2019-04-06T00:53:34.583Z,41.57
2019-04-06T00:54:34.700Z,43.18
2019-04-06T00:55:34.952Z,39.32
2019-04-06T00:56:35.061Z,40.44
2019-04-06T00:57:35.285Z,42.38
2019-04-06T00:58:35.434Z,41.41
2019-04-06T00:59:35.672Z,47.05
2019-04-06T01:00:35.914Z,41.41
2019-04-06T01:01:36.099Z,45.92
2019-04-06T01:02:36.216Z,41.09
2019-04-06T01:03:36.365Z,40.77
2019-04-06T01:04:36.609Z,43.02
2019-04-06T01:05:36.785Z,40.44
2019-04-06T01:06:36.952Z,44.31
2019-04-06T01:07:37.100Z,41.09
2019-04-06T01:08:37.274Z,46.89
2019-04-06T01:09:37.447Z,46.57
2019-04-06T01:10:37.621Z,51.56
2019-04-06T01:11:37.784Z,52.37
2019-04-06T01:12:37.941Z,43.67
2019-04-06T01:13:38.081Z,47.21
2019-04-06T01:14:38.208Z,44.79
2019-04-06T01:15:39.339Z,45.44
2019-04-06T01:16:38.548Z,40.61
2019-04-06T01:17:38.709Z,45.60
2019-04-06T01:18:38.813Z,85.24
2019-04-06T01:19:38.942Z,44.31
2019-04-06T01:20:39.065Z,40.61
2019-04-06T01:21:39.294Z,45.12
2019-04-06T01:22:39.493Z,42.86
2019-04-06T01:23:39.615Z,39.80
2019-04-06T01:24:39.747Z,41.57
2019-04-06T01:25:39.869Z,45.28
2019-04-06T01:26:39.991Z,52.69
2019-04-06T01:27:40.291Z,42.86
2019-04-06T01:28:40.299Z,40.93
2019-04-06T01:29:40.533Z,43.99
2019-04-06T01:30:40.786Z,40.28
2019-04-06T01:31:40.895Z,46.41
2019-04-06T01:32:41.141Z,40.28
2019-04-06T01:33:41.388Z,47.86
2019-04-06T01:34:41.542Z,39.64
2019-04-06T01:35:41.714Z,43.83
2019-04-06T01:36:41.790Z,39.96
2019-04-06T01:37:41.971Z,39.80
2019-04-06T01:38:42.075Z,40.61
2019-04-06T01:39:42.270Z,41.09
2019-04-06T01:40:42.424Z,44.47
2019-04-06T01:41:42.618Z,40.28
2019-04-06T01:42:42.717Z,41.41
2019-04-06T01:43:42.953Z,39.80
2019-04-06T01:44:43.207Z,40.44
2019-04-06T01:45:43.422Z,40.93
2019-04-06T01:46:43.697Z,43.02
2019-04-06T01:47:43.767Z,43.18
2019-04-06T01:48:44.036Z,43.83
2019-04-06T01:49:44.102Z,44.47
2019-04-06T01:50:44.354Z,46.25
2019-04-06T01:51:44.574Z,39.96
2019-04-06T01:52:44.788Z,48.50
2019-04-06T01:53:45.022Z,42.86
2019-04-06T01:54:45.241Z,39.48
2019-04-06T01:55:45.501Z,39.64
2019-04-06T01:56:45.619Z,38.99
2019-04-06T01:57:45.819Z,41.73
2019-04-06T01:58:46.027Z,42.86
2019-04-06T01:59:46.233Z,40.77
2019-04-06T02:00:46.476Z,40.44
2019-04-06T02:01:46.630Z,57.69
2019-04-06T02:02:46.766Z,69.61
2019-04-06T02:03:46.908Z,46.73
2019-04-06T02:04:47.023Z,49.63
2019-04-06T02:05:47.139Z,57.36
2019-04-06T02:06:47.385Z,45.28
2019-04-06T02:07:47.520Z,42.70
2019-04-06T02:08:47.757Z,39.96
2019-04-06T02:09:47.985Z,39.96
2019-04-06T02:10:48.186Z,40.44
2019-04-06T02:11:48.384Z,41.25
2019-04-06T02:12:48.565Z,39.96
2019-04-06T02:13:48.739Z,39.80
2019-04-06T02:14:48.935Z,40.28
2019-04-06T02:15:49.131Z,40.12
2019-04-06T02:16:49.304Z,40.44
2019-04-06T02:17:49.492Z,47.21
2019-04-06T02:18:49.690Z,48.18
2019-04-06T02:19:49.888Z,43.02
2019-04-06T02:20:50.055Z,44.31
2019-04-06T02:21:50.328Z,44.47
2019-04-06T02:22:50.400Z,48.02
2019-04-06T02:23:50.612Z,44.96
2019-04-06T02:24:50.830Z,42.70
2019-04-06T02:25:51.017Z,41.57
2019-04-06T02:26:51.228Z,43.02
2019-04-06T02:27:51.489Z,41.89
2019-04-06T02:28:52.576Z,45.28
2019-04-06T02:29:51.761Z,40.93
2019-04-06T02:30:52.012Z,41.09
2019-04-06T02:31:52.145Z,40.61
2019-04-06T02:32:52.322Z,42.54
2019-04-06T02:33:52.449Z,46.57
2019-04-06T02:34:52.768Z,77.99
2019-04-06T02:35:53.105Z,40.77
2019-04-06T02:36:53.123Z,44.96
2019-04-06T02:37:53.381Z,45.28
2019-04-06T02:38:53.406Z,44.31
2019-04-06T02:39:53.532Z,43.51
2019-04-06T02:40:53.669Z,71.06
2019-04-06T02:41:53.780Z,60.75
2019-04-06T02:42:54.051Z,40.44
2019-04-06T02:43:54.200Z,45.60
2019-04-06T02:44:54.311Z,40.93
2019-04-06T02:45:54.481Z,48.34
2019-04-06T02:46:54.699Z,42.86
2019-04-06T02:47:54.925Z,42.22
2019-04-06T02:48:56.176Z,41.09
2019-04-06T02:49:55.385Z,42.86
2019-04-06T02:50:55.502Z,42.38
2019-04-06T02:51:55.705Z,46.08
2019-04-06T02:52:55.901Z,41.25
2019-04-06T02:53:56.136Z,43.18
2019-04-06T02:54:56.360Z,42.54
2019-04-06T02:55:56.462Z,43.67
2019-04-06T02:56:56.672Z,42.38
2019-04-06T02:57:56.852Z,43.34
2019-04-06T02:58:57.054Z,44.47
2019-04-06T02:59:57.293Z,42.54
2019-04-06T03:00:57.425Z,43.51
2019-04-06T03:01:57.543Z,45.12
2019-04-06T03:02:57.904Z,53.66
2019-04-06T03:03:57.864Z,49.63
2019-04-06T03:04:58.137Z,46.57
2019-04-06T03:05:58.266Z,46.41
2019-04-06T03:06:58.437Z,48.34
2019-04-06T03:07:58.561Z,50.76
2019-04-06T03:08:58.701Z,49.95
2019-04-06T03:09:58.833Z,52.69
2019-04-06T03:10:58.937Z,55.11
2019-04-06T03:11:59.178Z,68.32
2019-04-06T03:12:59.412Z,47.86
2019-04-06T03:13:59.606Z,52.21
2019-04-06T03:14:59.798Z,50.76
2019-04-06T03:16:00.015Z,48.66
2019-04-06T03:17:00.230Z,48.34
2019-04-06T03:18:00.442Z,56.07
2019-04-06T03:19:00.664Z,83.31
2019-04-06T03:20:00.789Z,70.25
2019-04-06T03:21:00.984Z,69.77
2019-04-06T03:22:01.209Z,76.38
2019-04-06T03:23:01.471Z,75.09
2019-04-06T03:24:01.730Z,74.44
2019-04-06T03:25:01.841Z,78.31
2019-04-06T03:26:02.300Z,79.44
2019-04-06T03:27:02.957Z,79.44
2019-04-06T03:28:03.479Z,76.54
2019-04-06T03:29:02.673Z,77.50
2019-04-06T03:30:02.889Z,79.76
2019-04-06T03:31:03.447Z,77.50
2019-04-06T03:32:03.523Z,81.69
2019-04-06T03:33:03.744Z,81.21
2019-04-06T03:34:03.645Z,76.86
2019-04-06T03:35:03.902Z,68.32
2019-04-06T03:36:04.246Z,69.77
2019-04-06T03:37:04.164Z,73.80
2019-04-06T03:38:04.383Z,75.89
2019-04-06T03:39:04.597Z,92.81
2019-04-06T03:40:04.788Z,89.91
2019-04-06T03:41:05.011Z,89.43
2019-04-06T03:42:05.240Z,87.33
2019-04-06T03:43:05.517Z,75.57
2019-04-06T03:44:05.468Z,73.96
2019-04-06T03:45:05.670Z,76.86
2019-04-06T03:46:06.033Z,73.80
2019-04-06T03:47:06.009Z,75.57
2019-04-06T03:48:06.202Z,77.34
2019-04-06T03:49:06.383Z,75.89
2019-04-06T03:50:06.612Z,74.77
2019-04-06T03:51:06.782Z,75.09
2019-04-06T03:52:06.985Z,77.67
2019-04-06T03:53:07.176Z,77.83
2019-04-06T03:54:07.650Z,76.54
2019-04-06T03:55:07.484Z,75.89
2019-04-06T03:56:07.661Z,76.86
2019-04-06T03:57:14.476Z,77.02
2019-04-06T03:58:09.969Z,74.28
2019-04-06T03:59:08.201Z,75.25
2019-04-06T04:00:08.416Z,76.86
2019-04-06T04:01:08.922Z,77.50
2019-04-06T04:02:08.788Z,75.89
2019-04-06T04:03:08.999Z,77.02
2019-04-06T04:04:09.125Z,89.75
2019-04-06T04:05:09.535Z,89.11
2019-04-06T04:06:09.449Z,89.75
2019-04-06T04:07:09.612Z,89.43
2019-04-06T04:08:09.794Z,89.27
2019-04-06T04:09:09.968Z,90.23
2019-04-06T04:10:10.415Z,91.04
2019-04-06T04:11:10.511Z,89.59
2019-04-06T04:12:10.462Z,91.52
2019-04-06T04:13:10.621Z,91.36
2019-04-06T04:14:10.811Z,90.07
2019-04-06T04:15:10.988Z,90.40
2019-04-06T04:16:11.140Z,89.91
2019-04-06T04:17:11.256Z,93.62
2019-04-06T04:18:11.544Z,78.15
2019-04-06T04:19:11.629Z,78.79
2019-04-06T04:20:11.834Z,81.86
2019-04-06T04:21:11.972Z,72.19
2019-04-06T04:22:12.112Z,76.54
2019-04-06T04:23:12.270Z,76.05
2019-04-06T04:24:12.437Z,77.50
2019-04-06T04:25:12.617Z,84.59
2019-04-06T04:26:13.756Z,77.18
2019-04-06T04:27:12.987Z,76.54
2019-04-06T04:28:13.195Z,76.70
2019-04-06T04:29:13.504Z,76.86
2019-04-06T04:30:15.214Z,76.54
2019-04-06T04:31:14.786Z,74.12
2019-04-06T04:32:13.912Z,72.35
2019-04-06T04:33:14.189Z,66.39
2019-04-06T04:34:14.341Z,66.71
2019-04-06T04:35:14.394Z,73.48
2019-04-06T04:36:14.631Z,76.54
2019-04-06T04:37:14.673Z,77.02
2019-04-06T04:38:15.026Z,72.35
2019-04-06T04:39:15.065Z,75.57
2019-04-06T04:40:15.221Z,76.38
2019-04-06T04:41:15.381Z,76.38
2019-04-06T04:42:15.818Z,77.34
2019-04-06T04:43:15.773Z,75.25
2019-04-06T04:44:16.064Z,77.34
2019-04-06T04:45:16.099Z,75.25
2019-04-06T04:46:16.258Z,77.34
2019-04-06T04:47:16.422Z,74.12
2019-04-06T04:48:16.732Z,75.89
2019-04-06T04:49:16.772Z,86.21
2019-04-06T04:50:16.938Z,85.24
2019-04-06T04:51:17.124Z,86.69
2019-04-06T04:52:17.419Z,86.69
2019-04-06T04:53:17.521Z,75.41
2019-04-06T04:54:17.686Z,79.28
2019-04-06T04:55:17.852Z,75.41
2019-04-06T04:56:18.059Z,74.60
2019-04-06T04:57:18.244Z,75.09
2019-04-06T04:58:18.426Z,77.02
2019-04-06T04:59:18.587Z,75.09
2019-04-06T05:00:18.784Z,76.05
2019-04-06T05:01:18.945Z,74.60
2019-04-06T05:02:19.229Z,74.44
2019-04-06T05:03:19.461Z,76.22
2019-04-06T05:04:19.544Z,76.86
2019-04-06T05:05:19.596Z,81.53
2019-04-06T05:06:19.749Z,73.96
2019-04-06T05:07:19.946Z,72.99
2019-04-06T05:08:20.099Z,78.96
2019-04-06T05:09:20.371Z,76.38
2019-04-06T05:10:20.396Z,76.05
2019-04-06T05:11:20.563Z,74.93
2019-04-06T05:12:20.741Z,75.25
2019-04-06T05:13:20.932Z,78.63
2019-04-06T05:14:21.189Z,77.83
2019-04-06T05:15:21.247Z,75.89
2019-04-06T05:16:21.409Z,77.83
2019-04-06T05:17:21.608Z,73.48
2019-04-06T05:18:22.804Z,68.48
2019-04-06T05:19:21.928Z,72.19
2019-04-06T05:20:23.943Z,78.96
2019-04-06T05:21:22.270Z,77.99
2019-04-06T05:22:22.558Z,75.57
2019-04-06T05:23:22.568Z,77.34
2019-04-06T05:24:22.965Z,76.38
2019-04-06T05:25:22.898Z,54.95
2019-04-06T05:26:23.080Z,70.09
2019-04-06T05:27:23.273Z,76.38
2019-04-06T05:28:23.446Z,75.73
2019-04-06T05:29:23.590Z,67.03
2019-04-06T05:30:23.768Z,66.23
2019-04-06T05:31:23.929Z,75.57
2019-04-06T05:32:24.106Z,75.57
2019-04-06T05:33:24.278Z,77.83
2019-04-06T05:34:24.577Z,79.12
2019-04-06T05:35:24.650Z,77.67
2019-04-06T05:36:24.988Z,78.15
2019-04-06T05:37:25.021Z,74.28
2019-04-06T05:38:25.208Z,75.09
2019-04-06T05:39:25.360Z,76.70
2019-04-06T05:40:25.558Z,79.92
2019-04-06T05:41:25.750Z,74.77
2019-04-06T05:42:25.921Z,76.54
2019-04-06T05:43:26.103Z,73.64
2019-04-06T05:44:26.265Z,69.13
2019-04-06T05:45:26.460Z,60.91
2019-04-06T05:46:26.621Z,66.06
2019-04-06T05:47:26.774Z,74.93
2019-04-06T05:48:26.968Z,72.03
2019-04-06T05:49:27.176Z,80.41
2019-04-06T05:50:27.348Z,78.79
2019-04-06T05:51:27.552Z,83.63
2019-04-06T05:52:27.710Z,84.59
2019-04-06T05:53:27.927Z,83.31
2019-04-06T05:54:28.117Z,82.82
2019-04-06T05:55:28.300Z,84.76
2019-04-06T05:56:28.502Z,83.47
2019-04-06T05:57:31.801Z,70.74
2019-04-06T05:58:28.880Z,72.03
2019-04-06T05:59:29.027Z,76.86
2019-04-06T06:00:29.197Z,76.22
2019-04-06T06:01:29.381Z,75.09
2019-04-06T06:02:29.524Z,81.37
2019-04-06T06:03:29.679Z,73.15
2019-04-06T06:04:29.825Z,76.38
2019-04-06T06:05:29.986Z,74.44
2019-04-06T06:06:30.220Z,75.89
2019-04-06T06:07:30.252Z,86.04
2019-04-06T06:08:30.606Z,63.33
2019-04-06T06:09:31.521Z,71.06
2019-04-06T06:10:30.670Z,75.89
2019-04-06T06:11:30.801Z,77.99
2019-04-06T06:12:31.174Z,74.44
2019-04-06T06:13:31.195Z,82.18
2019-04-06T06:14:31.339Z,76.86
2019-04-06T06:15:31.514Z,77.02
2019-04-06T06:16:31.667Z,69.29
2019-04-06T06:17:32.028Z,72.03
2019-04-06T06:18:32.044Z,73.80
2019-04-06T06:19:32.216Z,75.41
2019-04-06T06:20:32.390Z,75.41
2019-04-06T06:21:32.545Z,78.47
2019-04-06T06:22:32.727Z,75.73
2019-04-06T06:23:32.931Z,75.25
2019-04-06T06:24:34.680Z,72.83
2019-04-06T06:25:34.339Z,74.12
2019-04-06T06:26:33.478Z,77.99
2019-04-06T06:27:33.779Z,77.83
2019-04-06T06:28:33.879Z,73.64
2019-04-06T06:29:34.074Z,66.71
2019-04-06T06:30:34.245Z,77.18
2019-04-06T06:31:34.431Z,75.09
2019-04-06T06:32:34.829Z,63.81
2019-04-06T06:33:34.815Z,73.80
2019-04-06T06:34:35.010Z,72.35
2019-04-06T06:35:35.308Z,72.19
2019-04-06T06:36:35.451Z,72.35
2019-04-06T06:37:35.516Z,75.09
2019-04-06T06:38:35.862Z,72.99
2019-04-06T06:39:36.026Z,70.09
2019-04-06T06:40:35.948Z,63.97
2019-04-06T06:41:36.142Z,73.15
2019-04-06T06:42:36.307Z,70.58
2019-04-06T06:43:36.506Z,75.41
2019-04-06T06:44:36.743Z,71.54
2019-04-06T06:45:36.925Z,73.15
2019-04-06T06:46:36.985Z,72.83
2019-04-06T06:47:37.179Z,75.89
2019-04-06T06:48:37.332Z,74.12
2019-04-06T06:49:37.740Z,74.44
2019-04-06T06:50:37.739Z,75.41
2019-04-06T06:51:37.912Z,76.70
2019-04-06T06:52:39.118Z,76.86
2019-04-06T06:53:38.271Z,86.53
2019-04-06T06:54:38.592Z,79.44
2019-04-06T06:55:38.605Z,72.51
2019-04-06T06:56:38.775Z,72.35
2019-04-06T06:57:38.946Z,77.34
2019-04-06T06:58:39.113Z,72.51
2019-04-06T06:59:39.276Z,72.67
2019-04-06T07:00:39.489Z,75.73
2019-04-06T07:01:39.727Z,74.93
2019-04-06T07:02:39.787Z,75.89
2019-04-06T07:03:39.952Z,72.03
2019-04-06T07:04:40.137Z,83.14
2019-04-06T07:05:40.445Z,72.03
2019-04-06T07:06:40.487Z,61.87
2019-04-06T07:07:40.633Z,77.34
2019-04-06T07:08:40.795Z,75.89
2019-04-06T07:09:41.134Z,79.12
2019-04-06T07:10:41.251Z,72.99
2019-04-06T07:11:41.447Z,74.28
2019-04-06T07:12:41.640Z,74.60
2019-04-06T07:13:41.840Z,74.93
2019-04-06T07:14:41.998Z,76.38
2019-04-06T07:15:43.448Z,75.41
2019-04-06T07:16:43.377Z,69.29
2019-04-06T07:17:42.533Z,69.13
2019-04-06T07:18:42.942Z,63.97
2019-04-06T07:19:42.846Z,70.90
2019-04-06T07:20:43.029Z,60.75
2019-04-06T07:21:43.181Z,69.29
2019-04-06T07:22:43.347Z,73.15
2019-04-06T07:23:43.484Z,73.96
2019-04-06T07:24:43.798Z,75.41
2019-04-06T07:25:43.733Z,70.58
2019-04-06T07:26:43.858Z,72.51
2019-04-06T07:27:45.051Z,84.92
2019-04-06T07:28:44.203Z,74.44
2019-04-06T07:29:44.507Z,58.81
2019-04-06T07:30:44.656Z,76.22
2019-04-06T07:31:44.718Z,73.96
2019-04-06T07:32:44.918Z,77.34
2019-04-06T07:33:45.071Z,77.67
2019-04-06T07:34:45.233Z,81.69
2019-04-06T07:35:45.402Z,78.79
2019-04-06T07:36:45.571Z,76.05
2019-04-06T07:37:45.772Z,80.24
2019-04-06T07:38:46.086Z,79.92
2019-04-06T07:39:46.102Z,81.69
2019-04-06T07:40:46.290Z,79.92
2019-04-06T07:41:47.473Z,78.63
2019-04-06T07:42:46.749Z,82.02
2019-04-06T07:43:46.806Z,77.18
2019-04-06T07:44:46.958Z,77.67
2019-04-06T07:45:47.114Z,78.47
2019-04-06T07:46:48.332Z,81.86
2019-04-06T07:47:47.489Z,79.92
2019-04-06T07:48:47.678Z,80.89
2019-04-06T07:49:47.843Z,79.28
2019-04-06T07:50:48.012Z,82.66
2019-04-06T07:51:48.171Z,77.99
2019-04-06T07:52:48.535Z,74.77
2019-04-06T07:53:48.584Z,72.03
2019-04-06T07:54:48.719Z,77.67
2019-04-06T07:55:48.958Z,72.83
2019-04-06T07:56:49.134Z,72.03
2019-04-06T07:57:49.270Z,68.96
2019-04-06T07:58:50.308Z,78.63
2019-04-06T07:59:50.529Z,81.69
2019-04-06T08:00:49.774Z,83.31
2019-04-06T08:01:49.902Z,82.98
2019-04-06T08:02:50.074Z,78.47
2019-04-06T08:03:50.407Z,78.96
2019-04-06T08:04:50.394Z,80.08
2019-04-06T08:05:51.652Z,75.57
2019-04-06T08:06:50.760Z,77.99
2019-04-06T08:07:50.947Z,78.79
2019-04-06T08:08:51.162Z,78.79
2019-04-06T08:09:51.174Z,62.84
2019-04-06T08:10:51.448Z,64.29
2019-04-06T08:11:51.497Z,62.68
2019-04-06T08:12:51.763Z,75.09
2019-04-06T08:13:51.770Z,73.32
2019-04-06T08:14:51.931Z,66.87
2019-04-06T08:15:52.069Z,74.93
2019-04-06T08:16:52.227Z,74.77
2019-04-06T08:17:52.422Z,74.93
2019-04-06T08:18:52.577Z,77.34
2019-04-06T08:19:52.738Z,79.28
2019-04-06T08:20:52.947Z,73.96
2019-04-06T08:21:53.093Z,75.25
2019-04-06T08:22:53.231Z,75.09
2019-04-06T08:23:53.387Z,71.70
2019-04-06T08:24:53.566Z,69.29
2019-04-06T08:25:54.011Z,69.13
2019-04-06T08:26:53.912Z,73.96
2019-04-06T08:27:54.102Z,76.38
2019-04-06T08:29:00.125Z,78.79
2019-04-06T08:29:56.409Z,77.34
2019-04-06T08:30:54.552Z,85.72
2019-04-06T08:31:54.713Z,69.61
2019-04-06T08:32:54.863Z,80.41
2019-04-06T08:33:55.034Z,82.66
2019-04-06T08:34:55.213Z,82.02
2019-04-06T08:35:55.337Z,79.92
2019-04-06T08:36:55.778Z,81.69
2019-04-06T08:37:55.674Z,74.12
2019-04-06T08:38:55.930Z,73.80
2019-04-06T08:39:56.077Z,78.63
2019-04-06T08:40:56.112Z,80.73
2019-04-06T08:41:56.331Z,83.95
2019-04-06T08:42:56.529Z,81.69
2019-04-06T08:43:56.851Z,64.13
2019-04-06T08:44:56.877Z,62.84
2019-04-06T08:45:57.126Z,83.31
2019-04-06T08:46:57.166Z,85.72
2019-04-06T08:47:57.343Z,80.73
2019-04-06T08:48:57.508Z,79.60
2019-04-06T08:49:57.684Z,80.41
2019-04-06T08:50:57.893Z,63.81
2019-04-06T08:51:58.329Z,71.87
2019-04-06T08:52:58.268Z,82.98
2019-04-06T08:53:58.519Z,81.21
2019-04-06T08:54:58.567Z,65.42
2019-04-06T08:55:58.932Z,62.04
2019-04-06T08:56:58.861Z,73.32
2019-04-06T08:57:59.141Z,61.87
2019-04-06T08:59:10.180Z,75.73
2019-04-06T09:00:00.368Z,67.68
2019-04-06T09:01:00.529Z,63.49
2019-04-06T09:01:59.931Z,70.25
2019-04-06T09:02:59.883Z,73.32
2019-04-06T09:04:00.133Z,83.14
2019-04-06T09:05:00.207Z,59.14
2019-04-06T09:06:00.480Z,70.58
2019-04-06T09:07:00.614Z,78.63
2019-04-06T09:08:00.706Z,60.42
2019-04-06T09:09:00.951Z,70.09
2019-04-06T09:10:01.045Z,70.42
2019-04-06T09:11:01.596Z,58.33
2019-04-06T09:12:01.454Z,64.45
2019-04-06T09:13:01.659Z,71.22
2019-04-06T09:14:01.869Z,70.09
2019-04-06T09:15:02.091Z,73.96
2019-04-06T09:16:03.897Z,71.38
2019-04-06T09:17:03.367Z,71.38
2019-04-06T09:18:02.535Z,68.00
2019-04-06T09:19:03.728Z,62.20
2019-04-06T09:20:02.951Z,81.21
2019-04-06T09:21:03.160Z,82.82
2019-04-06T09:22:03.399Z,78.96
2019-04-06T09:23:03.589Z,74.93
2019-04-06T09:24:03.813Z,74.44
2019-04-06T09:25:04.247Z,65.42
2019-04-06T09:26:04.194Z,66.71
2019-04-06T09:27:04.421Z,80.73
2019-04-06T09:28:04.636Z,77.99
2019-04-06T09:29:04.840Z,70.09
2019-04-06T09:30:05.006Z,78.47
2019-04-06T09:31:05.346Z,79.28
2019-04-06T09:32:05.379Z,80.41
2019-04-06T09:33:05.573Z,80.24
2019-04-06T09:34:05.782Z,79.60
2019-04-06T09:35:06.043Z,63.33
2019-04-06T09:36:06.220Z,71.87
2019-04-06T09:37:06.266Z,78.15
2019-04-06T09:38:06.455Z,77.99
2019-04-06T09:39:06.638Z,75.41
2019-04-06T09:40:07.137Z,72.35
2019-04-06T09:41:07.045Z,71.54
2019-04-06T09:42:07.205Z,77.18
2019-04-06T09:43:07.398Z,76.22
2019-04-06T09:44:07.617Z,59.30
2019-04-06T09:45:07.783Z,61.23
2019-04-06T09:46:07.940Z,72.35
2019-04-06T09:47:08.106Z,75.57
2019-04-06T09:48:08.250Z,73.80
2019-04-06T09:49:08.439Z,83.14
2019-04-06T09:50:08.617Z,79.44
2019-04-06T09:51:08.838Z,80.57
2019-04-06T09:52:08.984Z,74.60
2019-04-06T09:53:09.152Z,79.44
2019-04-06T09:54:09.339Z,82.18
2019-04-06T09:55:09.500Z,80.73
2019-04-06T09:56:09.732Z,83.31
2019-04-06T09:57:09.918Z,79.92
2019-04-06T09:58:10.082Z,83.63
2019-04-06T09:59:10.271Z,80.08
2019-04-06T10:00:10.439Z,75.57
2019-04-06T10:01:10.664Z,81.69
2019-04-06T10:02:10.837Z,82.66
2019-04-06T10:03:11.099Z,85.24
2019-04-06T10:04:11.167Z,82.02
2019-04-06T10:05:11.300Z,82.98
2019-04-06T10:06:11.535Z,82.98
2019-04-06T10:07:11.994Z,67.84
2019-04-06T10:08:11.934Z,71.70
2019-04-06T10:09:12.090Z,70.58
2019-04-06T10:10:12.249Z,73.48
2019-04-06T10:11:12.647Z,73.80
2019-04-06T10:12:12.568Z,70.25
2019-04-06T10:13:12.782Z,69.77
2019-04-06T10:14:12.990Z,74.93
2019-04-06T10:15:13.154Z,72.67
2019-04-06T10:16:13.796Z,71.22
2019-04-06T10:17:13.624Z,67.68
2019-04-06T10:18:13.629Z,67.84
2019-04-06T10:19:13.803Z,70.74
2019-04-06T10:20:14.248Z,70.90
2019-04-06T10:21:14.189Z,78.79
2019-04-06T10:22:14.380Z,74.44
2019-04-06T10:23:14.691Z,71.22
2019-04-06T10:24:14.795Z,73.96
2019-04-06T10:25:14.963Z,77.50
2019-04-06T10:26:15.119Z,74.77
2019-04-06T10:27:15.290Z,76.05
2019-04-06T10:28:15.472Z,73.64
2019-04-06T10:29:15.973Z,75.57
2019-04-06T10:30:15.787Z,74.93
2019-04-06T10:31:15.965Z,71.70
2019-04-06T10:32:16.123Z,70.58
2019-04-06T10:33:16.351Z,72.19
2019-04-06T10:34:16.578Z,72.35
2019-04-06T10:35:16.805Z,68.64
2019-04-06T10:36:16.899Z,74.44
2019-04-06T10:37:17.070Z,73.96
2019-04-06T10:38:17.310Z,75.25
2019-04-06T10:39:17.514Z,75.41
2019-04-06T10:40:17.739Z,71.06
2019-04-06T10:41:17.945Z,67.03
2019-04-06T10:42:18.185Z,62.68
2019-04-06T10:43:18.381Z,65.26
2019-04-06T10:44:18.564Z,67.19
2019-04-06T10:45:18.806Z,71.70
2019-04-06T10:46:19.164Z,65.58
2019-04-06T10:47:19.062Z,68.32
2019-04-06T10:48:19.258Z,66.87
2019-04-06T10:49:19.581Z,78.79
2019-04-06T10:50:19.620Z,85.72
2019-04-06T10:51:19.842Z,82.82
2019-04-06T10:52:20.014Z,80.08
2019-04-06T10:53:20.238Z,79.12
2019-04-06T10:54:20.423Z,65.10
2019-04-06T10:55:20.617Z,70.42
2019-04-06T10:56:20.864Z,71.38
2019-04-06T10:57:22.056Z,74.77
2019-04-06T10:58:21.315Z,72.03
2019-04-06T10:59:21.522Z,75.89
2019-04-06T11:00:21.968Z,62.68
2019-04-06T11:01:21.847Z,62.84
2019-04-06T11:02:22.044Z,71.87
2019-04-06T11:03:22.247Z,68.00
2019-04-06T11:04:22.679Z,62.20
2019-04-06T11:05:23.074Z,72.51
2019-04-06T11:06:22.769Z,83.63
2019-04-06T11:07:23.510Z,81.05
2019-04-06T11:08:23.232Z,82.98
2019-04-06T11:09:23.489Z,85.72
2019-04-06T11:10:23.544Z,78.31
2019-04-06T11:11:23.890Z,83.63
2019-04-06T11:12:24.005Z,74.44
2019-04-06T11:13:24.179Z,81.05
2019-04-06T11:14:24.379Z,72.67
2019-04-06T11:15:24.573Z,82.02
2019-04-06T11:16:25.004Z,78.79
2019-04-06T11:17:24.903Z,77.67
2019-04-06T11:18:25.112Z,67.84
2019-04-06T11:19:25.292Z,66.87
2019-04-06T11:20:25.476Z,71.54
2019-04-06T11:21:26.646Z,72.67
2019-04-06T11:22:25.815Z,73.48
2019-04-06T11:23:26.266Z,65.58
2019-04-06T11:24:26.228Z,70.74
2019-04-06T11:25:26.546Z,61.71
2019-04-06T11:26:26.642Z,67.35
2019-04-06T11:27:26.822Z,68.64
2019-04-06T11:28:27.019Z,71.70
2019-04-06T11:29:27.192Z,72.19
2019-04-06T11:30:27.382Z,76.70
2019-04-06T11:31:27.844Z,77.83
2019-04-06T11:32:27.821Z,79.76
2019-04-06T11:33:27.913Z,82.34
2019-04-06T11:34:28.114Z,80.73
2019-04-06T11:35:28.287Z,77.34
2019-04-06T11:36:28.483Z,82.34
2019-04-06T11:37:28.892Z,77.67
2019-04-06T11:38:28.878Z,74.44
2019-04-06T11:39:29.052Z,70.25
2019-04-06T11:40:29.409Z,69.77
2019-04-06T11:41:29.377Z,72.67
2019-04-06T11:42:29.593Z,68.80
2019-04-06T11:43:29.758Z,65.74
2019-04-06T11:44:29.975Z,81.21
2019-04-06T11:45:30.281Z,76.86
2019-04-06T11:46:30.358Z,75.09
2019-04-06T11:47:30.577Z,72.51
2019-04-06T11:48:30.798Z,76.22
2019-04-06T11:49:31.030Z,65.74
2019-04-06T11:50:31.242Z,75.41
2019-04-06T11:51:31.449Z,78.63
2019-04-06T11:52:31.650Z,77.34
2019-04-06T11:53:31.993Z,82.02
2019-04-06T11:54:32.072Z,77.02
2019-04-06T11:55:32.305Z,69.77
2019-04-06T11:56:32.765Z,67.03
2019-04-06T11:57:32.927Z,61.71
2019-04-06T11:58:32.834Z,61.39
2019-04-06T11:59:33.929Z,74.44
2019-04-06T12:00:33.113Z,71.22
2019-04-06T12:01:33.637Z,70.42
2019-04-06T12:02:33.485Z,71.70
2019-04-06T12:03:34.093Z,62.36
2019-04-06T12:04:33.807Z,69.77
2019-04-06T12:05:34.390Z,69.61
2019-04-06T12:06:34.213Z,55.91
2019-04-06T12:07:34.407Z,58.81
2019-04-06T12:08:34.825Z,72.51
2019-04-06T12:09:36.153Z,64.78
2019-04-06T12:10:35.238Z,78.47
2019-04-06T12:11:35.202Z,71.87
2019-04-06T12:12:35.395Z,53.33
2019-04-06T12:13:35.587Z,70.09
2019-04-06T12:14:35.723Z,61.07
2019-04-06T12:15:35.867Z,70.42
2019-04-06T12:16:36.039Z,67.35
2019-04-06T12:17:36.291Z,71.70
2019-04-06T12:18:36.374Z,63.49
2019-04-06T12:19:36.546Z,63.16
2019-04-06T12:20:36.732Z,66.23
2019-04-06T12:21:36.980Z,72.51
2019-04-06T12:22:37.047Z,54.46
2019-04-06T12:23:37.363Z,54.14
2019-04-06T12:24:37.439Z,73.15
2019-04-06T12:25:37.661Z,60.10
2019-04-06T12:26:37.901Z,68.80
2019-04-06T12:27:38.062Z,66.23
2019-04-06T12:28:38.470Z,71.38
2019-04-06T12:29:38.593Z,72.51
2019-04-06T12:30:39.357Z,80.57
2019-04-06T12:31:39.665Z,64.94
2019-04-06T12:32:38.919Z,61.39
2019-04-06T12:33:38.949Z,58.49
2019-04-06T12:34:39.258Z,71.70
2019-04-06T12:35:39.503Z,71.54
2019-04-06T12:36:39.570Z,65.42
2019-04-06T12:37:39.765Z,67.68
2019-04-06T12:38:39.961Z,60.75
2019-04-06T12:39:51.409Z,60.42
2019-04-06T12:40:42.322Z,74.77
2019-04-06T12:41:40.750Z,64.29
2019-04-06T12:42:40.614Z,63.33
2019-04-06T12:43:40.801Z,70.74
2019-04-06T12:44:41.040Z,66.23
2019-04-06T12:45:41.317Z,70.09
2019-04-06T12:46:41.446Z,77.18
2019-04-06T12:47:41.907Z,68.96
2019-04-06T12:48:41.753Z,66.39
2019-04-06T12:49:42.026Z,68.80
2019-04-06T12:50:42.108Z,69.13
2019-04-06T12:51:42.405Z,68.48
2019-04-06T12:52:42.496Z,69.93
2019-04-06T12:53:42.931Z,71.22
2019-04-06T12:54:42.906Z,69.45